Time;durP1;ratioP1;P1;durP2;ratioP2;P2;SDS_P1;SDS_P2;PMS_P1;PMS_P2;Temp;Humidity;BMP_temperature;BMP_pressure;BME280_temperature;BME280_humidity;BME280_pressure;Samples;Min_cycle;Max_cycle;Signal;HPM_P1;HPM_P2
2021/10/11 00:01:12;;;;;;;3.42;1.65;;;;;;;;;;5032660;28;20018;-60
2021/10/11 00:03:37;;;;;;;5.28;1.60;;;;;;;;;;5032028;28;20052;-60
2021/10/11 00:06:03;;;;;;;2.08;1.50;;;;;;;;;;5032223;28;20052;-60
2021/10/11 00:08:29;;;;;;;3.78;1.60;;;;;;;;;;5032291;28;20032;-60
2021/10/11 00:10:55;;;;;;;7.28;1.90;;;;;;;;;;5100686;28;20129;-60
2021/10/11 00:13:22;;;;;;;2.28;1.60;;;;;;;;;;5031212;28;20026;-60
2021/10/11 00:15:48;;;;;;;3.47;1.80;;;;;;;;;;5032054;28;20104;-60
2021/10/11 00:18:15;;;;;;;7.88;1.75;;;;;;;;;;5032206;28;20030;-60
2021/10/11 00:20:41;;;;;;;5.60;1.80;;;;;;;;;;5032221;28;20030;-63
2021/10/11 00:23:09;;;;;;;4.95;1.40;;;;;;;;;;5032073;28;20112;-60
2021/10/11 00:25:35;;;;;;;11.50;2.00;;;;;;;;;;5032179;28;20117;-60
2021/10/11 00:28:01;;;;;;;4.93;1.40;;;;;;;;;;5031036;28;20540;-60
2021/10/11 00:30:27;;;;;;;3.45;1.60;;;;;;;;;;5031985;28;20108;-60
2021/10/11 00:32:53;;;;;;;6.05;1.70;;;;;;;;;;5031765;28;20406;-60
2021/10/11 00:35:19;;;;;;;4.53;1.48;;;;;;;;;;5031797;28;20082;-60
2021/10/11 00:37:45;;;;;;;6.25;1.60;;;;;;;;;;5031500;28;20045;-60
2021/10/11 00:40:12;;;;;;;7.30;1.67;;;;;;;;;;5100421;28;20069;-60
2021/10/11 00:42:38;;;;;;;3.30;1.50;;;;;;;;;;5031950;28;20028;-60
2021/10/11 00:45:05;;;;;;;2.88;1.38;;;;;;;;;;5015945;28;20041;-60
2021/10/11 00:47:31;;;;;;;19.40;1.67;;;;;;;;;;5011983;28;20053;-61
2021/10/11 00:49:57;;;;;;;4.00;1.50;;;;;;;;;;5011904;28;20092;-60
2021/10/11 00:52:23;;;;;;;3.92;1.40;;;;;;;;;;5027739;27;20026;-60
2021/10/11 00:54:49;;;;;;;2.30;1.45;;;;;;;;;;5135825;27;20022;-60
2021/10/11 00:57:15;;;;;;;3.17;1.40;;;;;;;;;;5135921;27;20016;-60
2021/10/11 00:59:41;;;;;;;4.63;1.83;;;;;;;;;;5103047;27;20033;-60
2021/10/11 01:02:08;;;;;;;3.22;1.60;;;;;;;;;;5031575;28;20477;-60
2021/10/11 01:04:34;;;;;;;4.78;1.55;;;;;;;;;;5031517;28;20053;-60
2021/10/11 01:07:00;;;;;;;4.13;1.45;;;;;;;;;;5031047;28;20449;-60
2021/10/11 01:09:26;;;;;;;5.75;1.77;;;;;;;;;;5031431;28;20056;-60
2021/10/11 01:11:52;;;;;;;2.70;1.58;;;;;;;;;;5031342;28;20029;-62
2021/10/11 01:14:19;;;;;;;8.15;1.40;;;;;;;;;;5031244;28;20022;-60
2021/10/11 01:16:45;;;;;;;4.47;1.50;;;;;;;;;;5030196;28;20085;-60
2021/10/11 01:19:11;;;;;;;1.33;1.10;;;;;;;;;;5031564;28;20487;-60
2021/10/11 01:21:37;;;;;;;5.25;1.73;;;;;;;;;;5099382;28;20029;-60
2021/10/11 01:24:03;;;;;;;4.60;1.20;;;;;;;;;;5031098;28;20017;-60
2021/10/11 01:26:39;;;;;;;4.18;1.38;;;;;;;;;;5030936;28;20120;-59
2021/10/11 01:29:06;;;;;;;4.65;1.20;;;;;;;;;;5031284;28;20049;-59
2021/10/11 01:31:32;;;;;;;3.47;1.40;;;;;;;;;;5019904;28;20026;-60
2021/10/11 01:33:58;;;;;;;2.53;1.10;;;;;;;;;;5011253;28;20022;-60
2021/10/11 01:36:25;;;;;;;4.57;1.45;;;;;;;;;;5011068;28;20053;-60
2021/10/11 01:38:53;;;;;;;3.88;1.60;;;;;;;;;;5011145;28;20041;-60
2021/10/11 01:41:19;;;;;;;4.85;1.50;;;;;;;;;;5011558;28;20034;-60
2021/10/11 01:43:45;;;;;;;2.45;1.15;;;;;;;;;;5079252;28;20045;-60
2021/10/11 01:46:11;;;;;;;4.25;1.25;;;;;;;;;;5010945;28;20038;-60
2021/10/11 01:48:36;;;;;;;8.80;1.48;;;;;;;;;;5013995;28;20022;-60
2021/10/11 01:51:02;;;;;;;3.15;1.20;;;;;;;;;;5030759;28;20430;-60
2021/10/11 01:53:28;;;;;;;7.90;1.17;;;;;;;;;;5091017;27;20023;-60
2021/10/11 01:55:54;;;;;;;2.92;1.33;;;;;;;;;;5134584;27;20143;-60
2021/10/11 01:58:20;;;;;;;2.97;1.17;;;;;;;;;;5134562;27;20639;-60
2021/10/11 02:00:46;;;;;;;2.85;1.23;;;;;;;;;;5134409;27;20443;-59
2021/10/11 02:03:12;;;;;;;8.55;1.10;;;;;;;;;;5134808;27;20507;-60
2021/10/11 02:05:42;;;;;;;3.85;1.35;;;;;;;;;;5113557;27;20490;-63
2021/10/11 02:08:09;;;;;;;19.65;1.60;;;;;;;;;;5010751;28;20026;-60
2021/10/11 02:10:35;;;;;;;19.23;1.48;;;;;;;;;;5010679;28;20061;-60
2021/10/11 02:13:01;;;;;;;11.70;1.10;;;;;;;;;;5010966;28;20083;-60
2021/10/11 02:15:27;;;;;;;9.57;1.83;;;;;;;;;;5010609;28;20106;-61
2021/10/11 02:17:56;;;;;;;10.02;1.20;;;;;;;;;;5010637;28;20026;-60
2021/10/11 02:20:23;;;;;;;13.48;1.67;;;;;;;;;;5010523;28;20033;-60
2021/10/11 02:22:49;;;;;;;10.93;1.67;;;;;;;;;;5010154;28;20481;-60
2021/10/11 02:25:15;;;;;;;15.57;1.17;;;;;;;;;;5010063;28;20358;-60
2021/10/11 02:27:41;;;;;;;14.32;1.60;;;;;;;;;;5010280;28;20079;-60
2021/10/11 02:30:08;;;;;;;17.48;1.88;;;;;;;;;;5010305;28;20037;-59
2021/10/11 02:32:34;;;;;;;10.60;1.35;;;;;;;;;;5010315;28;20058;-60
2021/10/11 02:35:00;;;;;;;8.50;1.52;;;;;;;;;;5010226;28;20026;-61
2021/10/11 02:37:26;;;;;;;21.00;1.45;;;;;;;;;;5010240;28;20054;-60
2021/10/11 02:39:56;;;;;;;9.52;1.50;;;;;;;;;;5024659;28;20036;-60
2021/10/11 02:42:22;;;;;;;16.05;1.55;;;;;;;;;;5030262;28;20117;-60
2021/10/11 02:44:48;;;;;;;11.77;1.17;;;;;;;;;;5030107;28;20037;-61
2021/10/11 02:47:14;;;;;;;12.52;1.33;;;;;;;;;;5030211;28;20036;-60
2021/10/11 02:49:40;;;;;;;7.53;1.35;;;;;;;;;;5029736;28;20029;-60
2021/10/11 02:52:06;;;;;;;10.07;1.40;;;;;;;;;;5030943;28;20029;-60
2021/10/11 02:54:32;;;;;;;11.27;1.98;;;;;;;;;;5134014;27;20023;-60
2021/10/11 02:56:58;;;;;;;14.63;1.60;;;;;;;;;;5031163;28;20029;-60
2021/10/11 02:59:24;;;;;;;9.02;1.35;;;;;;;;;;5030173;28;20477;-59
2021/10/11 03:01:50;;;;;;;15.20;1.50;;;;;;;;;;5029603;28;20026;-60
2021/10/11 03:04:16;;;;;;;12.48;1.40;;;;;;;;;;5029433;28;20025;-60
2021/10/11 03:06:42;;;;;;;6.50;1.20;;;;;;;;;;5029664;28;20034;-61
2021/10/11 03:09:08;;;;;;;10.57;1.30;;;;;;;;;;5029410;28;20104;-60
2021/10/11 03:11:34;;;;;;;6.15;1.60;;;;;;;;;;5029673;28;20025;-61
2021/10/11 03:14:00;;;;;;;8.27;1.13;;;;;;;;;;5078008;28;20037;-60
2021/10/11 03:16:26;;;;;;;8.52;1.10;;;;;;;;;;5009893;28;20505;-60
2021/10/11 03:18:52;;;;;;;10.32;1.40;;;;;;;;;;5009900;28;20036;-61
2021/10/11 03:21:21;;;;;;;2.67;1.08;;;;;;;;;;5009759;28;20030;-61
2021/10/11 03:23:47;;;;;;;7.85;1.30;;;;;;;;;;5009627;28;20033;-62
2021/10/11 03:26:13;;;;;;;3.17;0.90;;;;;;;;;;5009454;28;20050;-60
2021/10/11 03:28:39;;;;;;;5.38;1.30;;;;;;;;;;5009162;28;20026;-60
2021/10/11 03:31:05;;;;;;;5.43;1.33;;;;;;;;;;5012440;28;20022;-61
2021/10/11 03:33:31;;;;;;;5.40;1.17;;;;;;;;;;5081029;28;20049;-60
2021/10/11 03:35:57;;;;;;;7.68;1.00;;;;;;;;;;5013369;28;20477;-60
2021/10/11 03:38:23;;;;;;;5.07;1.20;;;;;;;;;;5013390;28;20106;-60
2021/10/11 03:40:48;;;;;;;3.70;1.10;;;;;;;;;;5012979;28;20074;-62
2021/10/11 03:43:14;;;;;;;2.33;0.77;;;;;;;;;;5013022;28;20045;-60
2021/10/11 03:45:40;;;;;;;9.57;1.00;;;;;;;;;;5080577;28;20052;-60
2021/10/11 03:48:07;;;;;;;7.88;1.13;;;;;;;;;;5031705;28;20525;-61
2021/10/11 03:50:32;;;;;;;7.18;1.23;;;;;;;;;;5032800;28;20025;-62
2021/10/11 03:52:59;;;;;;;4.35;1.05;;;;;;;;;;5071403;27;20019;-60
2021/10/11 03:55:25;;;;;;;3.58;1.00;;;;;;;;;;5136758;27;20035;-60
2021/10/11 03:57:51;;;;;;;4.90;1.00;;;;;;;;;;5137499;27;20050;-60
2021/10/11 04:00:17;;;;;;;3.15;1.00;;;;;;;;;;5137341;27;20038;-60
2021/10/11 04:02:43;;;;;;;5.68;0.90;;;;;;;;;;5136710;27;20029;-60
2021/10/11 04:05:09;;;;;;;3.28;1.20;;;;;;;;;;5049860;27;20033;-60
2021/10/11 04:07:37;;;;;;;2.20;0.88;;;;;;;;;;5101113;28;20033;-60
2021/10/11 04:10:05;;;;;;;6.30;0.88;;;;;;;;;;5032630;28;20025;-60
2021/10/11 04:12:35;;;;;;;6.22;0.90;;;;;;;;;;5032829;28;20022;-60
2021/10/11 04:15:02;;;;;;;7.97;0.95;;;;;;;;;;5101394;28;20018;-60
2021/10/11 04:17:28;;;;;;;4.05;0.90;;;;;;;;;;5032510;28;20037;-61
2021/10/11 04:19:54;;;;;;;5.28;1.02;;;;;;;;;;5030490;28;20143;-60
2021/10/11 04:22:20;;;;;;;2.30;0.80;;;;;;;;;;5012412;28;20099;-61
2021/10/11 04:24:46;;;;;;;6.80;1.27;;;;;;;;;;5012026;28;20405;-60
2021/10/11 04:27:12;;;;;;;3.40;1.20;;;;;;;;;;5012435;28;20044;-60
2021/10/11 04:29:38;;;;;;;9.45;0.95;;;;;;;;;;5012245;28;20034;-60
2021/10/11 04:32:05;;;;;;;3.80;1.13;;;;;;;;;;5012552;28;20430;-60
2021/10/11 04:34:31;;;;;;;6.40;1.10;;;;;;;;;;5012336;28;20030;-60
2021/10/11 04:36:57;;;;;;;2.97;0.95;;;;;;;;;;5011492;28;20114;-60
2021/10/11 04:39:23;;;;;;;2.63;1.00;;;;;;;;;;5012219;28;20037;-61
2021/10/11 04:41:49;;;;;;;8.13;1.30;;;;;;;;;;5011868;28;20045;-60
2021/10/11 04:44:14;;;;;;;9.10;1.10;;;;;;;;;;5012323;28;20042;-61
2021/10/11 04:46:40;;;;;;;2.13;0.95;;;;;;;;;;5080063;28;20377;-60
2021/10/11 04:49:06;;;;;;;4.97;1.10;;;;;;;;;;5012126;28;20029;-60
2021/10/11 04:51:32;;;;;;;6.30;1.30;;;;;;;;;;5011945;28;20053;-60
2021/10/11 04:53:58;;;;;;;2.15;0.82;;;;;;;;;;5037016;27;20396;-62
2021/10/11 04:56:24;;;;;;;4.35;1.20;;;;;;;;;;5011854;28;20044;-60
2021/10/11 04:58:50;;;;;;;3.78;0.90;;;;;;;;;;5079641;28;20036;-60
2021/10/11 05:01:17;;;;;;;3.63;1.00;;;;;;;;;;5011728;28;20018;-60
2021/10/11 05:03:43;;;;;;;9.10;1.35;;;;;;;;;;5011776;28;20096;-60
2021/10/11 05:06:09;;;;;;;4.32;0.98;;;;;;;;;;5011504;28;20061;-60
2021/10/11 05:08:35;;;;;;;4.38;1.23;;;;;;;;;;5079895;28;20018;-60
2021/10/11 05:11:01;;;;;;;2.70;0.95;;;;;;;;;;5028933;28;20036;-60
2021/10/11 05:13:27;;;;;;;5.32;0.85;;;;;;;;;;5031647;28;20112;-60
2021/10/11 05:15:53;;;;;;;4.20;1.00;;;;;;;;;;5099428;28;20037;-61
2021/10/11 05:18:19;;;;;;;4.88;1.10;;;;;;;;;;5031168;28;20018;-61
2021/10/11 05:20:50;;;;;;;6.85;1.10;;;;;;;;;;5031236;28;20030;-61
2021/10/11 05:23:17;;;;;;;4.43;1.10;;;;;;;;;;5031248;28;20013;-60
2021/10/11 05:25:43;;;;;;;3.05;0.90;;;;;;;;;;5030978;28;20029;-61
2021/10/11 05:28:09;;;;;;;6.57;1.10;;;;;;;;;;5014101;28;20078;-61
2021/10/11 05:30:38;;;;;;;5.57;1.20;;;;;;;;;;5011106;28;20030;-61
2021/10/11 05:33:04;;;;;;;2.47;0.98;;;;;;;;;;5011594;28;20159;-60
2021/10/11 05:35:30;;;;;;;8.30;1.10;;;;;;;;;;5011861;28;20146;-61
2021/10/11 05:37:56;;;;;;;3.30;0.90;;;;;;;;;;5011384;28;20085;-61
2021/10/11 05:40:22;;;;;;;2.03;0.90;;;;;;;;;;5011303;28;20022;-60
2021/10/11 05:42:48;;;;;;;10.10;1.00;;;;;;;;;;5010790;28;20483;-60
2021/10/11 05:45:14;;;;;;;8.90;1.05;;;;;;;;;;5010936;28;20556;-60
2021/10/11 05:47:40;;;;;;;4.35;1.00;;;;;;;;;;5010965;28;20102;-60
2021/10/11 05:50:07;;;;;;;4.32;1.08;;;;;;;;;;5011147;28;20030;-61
2021/10/11 05:52:34;;;;;;;2.67;1.00;;;;;;;;;;5035058;27;20490;-60
2021/10/11 05:55:00;;;;;;;17.13;1.23;;;;;;;;;;5135011;27;20019;-60
2021/10/11 05:57:26;;;;;;;3.53;0.85;;;;;;;;;;5134543;27;20019;-60
2021/10/11 05:59:52;;;;;;;6.28;1.13;;;;;;;;;;5047915;27;20388;-61
2021/10/11 06:02:18;;;;;;;3.85;1.10;;;;;;;;;;5098827;28;20030;-60
2021/10/11 06:04:44;;;;;;;5.10;0.80;;;;;;;;;;5030562;28;20029;-60
2021/10/11 06:07:10;;;;;;;3.75;0.80;;;;;;;;;;5030784;28;20032;-60
2021/10/11 06:09:36;;;;;;;9.38;0.80;;;;;;;;;;5030174;28;20029;-60
2021/10/11 06:12:02;;;;;;;4.72;1.00;;;;;;;;;;5030297;28;20032;-60
2021/10/11 06:14:28;;;;;;;3.63;0.95;;;;;;;;;;5030372;28;20128;-62
2021/10/11 06:16:54;;;;;;;1.50;0.82;;;;;;;;;;5017852;28;20026;-60
2021/10/11 06:19:20;;;;;;;5.43;0.90;;;;;;;;;;5010675;28;20030;-62
2021/10/11 06:21:46;;;;;;;4.20;1.10;;;;;;;;;;5010479;28;20468;-60
2021/10/11 06:24:12;;;;;;;6.05;1.10;;;;;;;;;;5010559;28;20049;-60
2021/10/11 06:26:39;;;;;;;8.18;1.30;;;;;;;;;;5015751;27;20066;-60
2021/10/11 06:29:05;;;;;;;11.95;1.35;;;;;;;;;;5134031;27;20019;-60
2021/10/11 06:31:31;;;;;;;9.93;0.95;;;;;;;;;;5124176;27;20031;-59
2021/10/11 06:33:56;;;;;;;8.60;1.20;;;;;;;;;;5030262;28;20375;-59
2021/10/11 06:36:22;;;;;;;7.70;1.08;;;;;;;;;;5024323;28;20034;-59
2021/10/11 06:38:48;;;;;;;11.18;1.25;;;;;;;;;;5012330;28;20079;-60
2021/10/11 06:41:14;;;;;;;4.70;1.05;;;;;;;;;;5077784;28;20034;-60
2021/10/11 06:43:40;;;;;;;5.63;1.00;;;;;;;;;;5010157;28;20026;-61
2021/10/11 06:46:06;;;;;;;5.18;1.00;;;;;;;;;;5010179;28;20041;-60
2021/10/11 06:48:32;;;;;;;8.57;1.40;;;;;;;;;;5021983;28;20021;-62
2021/10/11 06:50:58;;;;;;;2.88;0.88;;;;;;;;;;5010160;28;20045;-59
2021/10/11 06:53:24;;;;;;;11.20;1.13;;;;;;;;;;5078050;27;20023;-59
2021/10/11 06:55:50;;;;;;;6.53;1.27;;;;;;;;;;5111047;27;20017;-60
2021/10/11 06:58:16;;;;;;;11.68;1.10;;;;;;;;;;5029686;28;20500;-60
2021/10/11 07:00:42;;;;;;;8.95;1.00;;;;;;;;;;5030128;28;20025;-60
2021/10/11 07:03:09;;;;;;;14.85;1.20;;;;;;;;;;5029789;28;20033;-60
2021/10/11 07:05:35;;;;;;;7.07;1.02;;;;;;;;;;5015604;28;20404;-60
2021/10/11 07:08:08;;;;;;;9.43;1.45;;;;;;;;;;5109958;28;20114;-60
2021/10/11 07:10:34;;;;;;;7.70;1.20;;;;;;;;;;5133583;28;20015;-60
2021/10/11 07:13:02;;;;;;;11.80;1.38;;;;;;;;;;5133376;27;20022;-60
2021/10/11 07:15:29;;;;;;;6.55;1.05;;;;;;;;;;5107061;28;20023;-60
2021/10/11 07:17:56;;;;;;;8.63;1.38;;;;;;;;;;5130703;28;20048;-60
2021/10/11 07:20:23;;;;;;;7.45;1.58;;;;;;;;;;5082460;28;20026;-65
2021/10/11 07:22:49;;;;;;;3.28;1.10;;;;;;;;;;5024457;28;20026;-63
2021/10/11 07:25:15;;;;;;;4.72;1.05;;;;;;;;;;5009827;28;20030;-61
2021/10/11 07:27:41;;;;;;;6.65;0.95;;;;;;;;;;5079612;28;20025;-60
2021/10/11 07:30:07;;;;;;;5.75;1.10;;;;;;;;;;5097892;28;20026;-60
2021/10/11 07:32:33;;;;;;;11.52;1.05;;;;;;;;;;5029473;28;20080;-61
2021/10/11 07:34:59;;;;;;;3.40;1.00;;;;;;;;;;5029455;28;20025;-60
2021/10/11 07:37:25;;;;;;;10.25;1.42;;;;;;;;;;5029014;28;20060;-60
2021/10/11 07:39:52;;;;;;;9.02;1.20;;;;;;;;;;5021789;28;20048;-62
2021/10/11 07:42:18;;;;;;;11.15;1.25;;;;;;;;;;5009277;28;20030;-60
2021/10/11 07:44:44;;;;;;;7.63;1.08;;;;;;;;;;5008971;28;20042;-60
2021/10/11 07:47:11;;;;;;;4.70;0.88;;;;;;;;;;5009498;28;20095;-60
2021/10/11 07:49:37;;;;;;;9.07;1.08;;;;;;;;;;5009460;28;20438;-60
2021/10/11 07:52:03;;;;;;;5.20;1.17;;;;;;;;;;5022109;28;20109;-61
2021/10/11 07:54:29;;;;;;;4.07;1.00;;;;;;;;;;5050631;28;20025;-60
2021/10/11 07:56:55;;;;;;;6.80;1.10;;;;;;;;;;5075492;28;20015;-60
2021/10/11 07:59:21;;;;;;;12.50;1.58;;;;;;;;;;5132775;28;20019;-61
2021/10/11 08:01:47;;;;;;;6.88;1.20;;;;;;;;;;5059673;28;20525;-60
2021/10/11 08:04:13;;;;;;;5.45;1.17;;;;;;;;;;5028782;28;20034;-60
2021/10/11 08:06:39;;;;;;;5.85;1.00;;;;;;;;;;5028726;28;20038;-60
2021/10/11 08:09:08;;;;;;;5.28;1.10;;;;;;;;;;5048423;28;20011;-60
2021/10/11 08:11:34;;;;;;;7.05;1.10;;;;;;;;;;5132729;28;20023;-61
2021/10/11 08:14:00;;;;;;;5.40;0.98;;;;;;;;;;5132801;28;20370;-60
2021/10/11 08:16:26;;;;;;;6.95;1.10;;;;;;;;;;5093813;27;20097;-60
2021/10/11 08:18:52;;;;;;;5.95;1.23;;;;;;;;;;5031843;28;20045;-60
2021/10/11 08:21:18;;;;;;;5.53;0.95;;;;;;;;;;5031778;28;20030;-60
2021/10/11 08:23:44;;;;;;;7.45;1.40;;;;;;;;;;5031644;28;20074;-60
2021/10/11 08:26:10;;;;;;;8.25;1.40;;;;;;;;;;5052324;27;20023;-60
2021/10/11 08:28:37;;;;;;;7.82;1.60;;;;;;;;;;5046099;27;20034;-60
2021/10/11 08:31:03;;;;;;;6.55;1.30;;;;;;;;;;5031824;28;20021;-60
2021/10/11 08:33:29;;;;;;;8.68;1.38;;;;;;;;;;5031858;28;20028;-60
2021/10/11 08:35:55;;;;;;;6.47;1.35;;;;;;;;;;5031250;28;20100;-60
2021/10/11 08:38:21;;;;;;;8.85;1.35;;;;;;;;;;5030449;28;20050;-60
2021/10/11 08:40:48;;;;;;;8.18;1.23;;;;;;;;;;5030680;28;20030;-62
2021/10/11 08:43:14;;;;;;;4.72;1.40;;;;;;;;;;5030762;28;20025;-60
2021/10/11 08:45:43;;;;;;;7.72;1.65;;;;;;;;;;5030315;28;20070;-60
2021/10/11 08:48:09;;;;;;;10.40;1.92;;;;;;;;;;5030686;28;20037;-60
2021/10/11 08:50:35;;;;;;;7.70;1.88;;;;;;;;;;5030477;28;20429;-60
2021/10/11 08:53:03;;;;;;;6.10;1.77;;;;;;;;;;5030206;28;20025;-60
2021/10/11 08:55:29;;;;;;;13.95;2.33;;;;;;;;;;5030377;28;20057;-60
2021/10/11 08:58:02;;;;;;;9.88;2.00;;;;;;;;;;5029898;28;20029;-60
2021/10/11 09:00:32;;;;;;;6.05;1.83;;;;;;;;;;5054578;27;20340;-60
2021/10/11 09:02:59;;;;;;;9.65;1.95;;;;;;;;;;5065806;27;20380;-60
2021/10/11 09:05:36;;;;;;;9.35;1.90;;;;;;;;;;5030877;28;20041;-60
2021/10/11 09:08:09;;;;;;;8.90;2.03;;;;;;;;;;5031270;28;20033;-60
2021/10/11 09:10:49;;;;;;;6.10;1.67;;;;;;;;;;5030386;28;20037;-60
2021/10/11 09:13:15;;;;;;;10.55;2.13;;;;;;;;;;5031097;28;20029;-60
2021/10/11 09:15:41;;;;;;;8.30;1.70;;;;;;;;;;5048778;27;20034;-60
2021/10/11 09:18:07;;;;;;;7.60;1.88;;;;;;;;;;5045873;27;20026;-60
2021/10/11 09:20:39;;;;;;;8.55;2.17;;;;;;;;;;5084994;27;20109;-60
2021/10/11 09:23:06;;;;;;;7.90;2.42;;;;;;;;;;5038251;27;20041;-60
2021/10/11 09:25:33;;;;;;;9.15;1.52;;;;;;;;;;5053973;27;20025;-60
2021/10/11 09:28:00;;;;;;;7.82;1.90;;;;;;;;;;5055182;28;20029;-60
2021/10/11 09:30:31;;;;;;;7.22;2.05;;;;;;;;;;5091479;27;20051;-63
2021/10/11 09:33:07;;;;;;;9.23;1.80;;;;;;;;;;5030269;28;20036;-60
2021/10/11 09:35:34;;;;;;;9.00;1.95;;;;;;;;;;5029395;28;20037;-60
2021/10/11 09:38:00;;;;;;;6.93;1.70;;;;;;;;;;5030510;28;20090;-60
2021/10/11 09:40:26;;;;;;;4.70;1.58;;;;;;;;;;5031279;28;20078;-64
2021/10/11 09:42:52;;;;;;;12.25;1.85;;;;;;;;;;5115186;27;20668;-61
2021/10/11 09:45:25;;;;;;;7.90;1.50;;;;;;;;;;5134798;27;20027;-60
2021/10/11 09:47:51;;;;;;;;;;;;;;;;;;5095729;27;20031;-64
2021/10/11 09:50:18;;;;;;;10.13;2.00;;;;;;;;;;5082771;27;19958;-61
2021/10/11 09:52:45;;;;;;;6.55;1.52;;;;;;;;;;5085018;27;20023;-60
2021/10/11 09:55:12;;;;;;;7.65;1.55;;;;;;;;;;5079159;27;20019;-60
2021/10/11 09:57:38;;;;;;;6.38;1.40;;;;;;;;;;5075335;27;20033;-62
2021/10/11 10:00:08;;;;;;;10.50;1.50;;;;;;;;;;5083221;27;20036;-61
2021/10/11 10:02:37;;;;;;;6.55;1.27;;;;;;;;;;5082509;27;20367;-62
2021/10/11 10:05:05;;;;;;;4.60;1.30;;;;;;;;;;5079520;27;20441;-59
2021/10/11 10:07:34;;;;;;;6.70;1.70;;;;;;;;;;5082983;27;20030;-59
2021/10/11 10:10:02;;;;;;;4.80;1.52;;;;;;;;;;5079407;27;20021;-60
2021/10/11 10:12:28;;;;;;;6.72;1.75;;;;;;;;;;5084877;27;20033;-61
2021/10/11 10:14:59;;;;;;;8.27;1.63;;;;;;;;;;5081894;27;20026;-60
2021/10/11 10:17:32;;;;;;;9.32;1.55;;;;;;;;;;5081772;27;20032;-62
2021/10/11 10:20:11;;;;;;;5.85;1.63;;;;;;;;;;5073070;27;20082;-63
2021/10/11 10:22:41;;;;;;;12.07;1.40;;;;;;;;;;5080573;27;20041;-60
2021/10/11 10:25:08;;;;;;;21.38;1.63;;;;;;;;;;5078658;27;20445;-62
2021/10/11 10:27:36;;;;;;;13.15;1.35;;;;;;;;;;5084035;27;20034;-60
2021/10/11 10:30:13;;;;;;;19.75;1.40;;;;;;;;;;5075889;27;20458;-60
2021/10/11 10:32:39;;;;;;;22.50;1.73;;;;;;;;;;5080757;27;20378;-60
2021/10/11 10:35:05;;;;;;;12.80;1.30;;;;;;;;;;5079673;27;20475;-62
2021/10/11 10:37:38;;;;;;;13.80;1.60;;;;;;;;;;5081574;27;20045;-60
2021/10/11 10:40:11;;;;;;;13.25;1.65;;;;;;;;;;5074883;27;20023;-59
2021/10/11 10:42:38;;;;;;;11.38;1.50;;;;;;;;;;5084690;27;20082;-59
2021/10/11 10:45:13;;;;;;;15.18;1.50;;;;;;;;;;5080857;27;20111;-59
2021/10/11 10:47:41;;;;;;;6.25;1.40;;;;;;;;;;5077106;27;20086;-58
2021/10/11 10:50:17;;;;;;;6.07;1.40;;;;;;;;;;5085918;27;20091;-60
2021/10/11 10:52:47;;;;;;;8.85;1.42;;;;;;;;;;5082072;27;20109;-59
2021/10/11 10:55:13;;;;;;;9.35;1.98;;;;;;;;;;5071811;28;20023;-59
2021/10/11 10:57:40;;;;;;;8.90;1.90;;;;;;;;;;5082205;27;20550;-60
2021/10/11 11:00:13;;;;;;;9.25;1.58;;;;;;;;;;5085629;27;20023;-60
2021/10/11 11:02:39;;;;;;;10.07;1.10;;;;;;;;;;5082170;28;20025;-63
2021/10/11 11:05:06;;;;;;;4.43;1.13;;;;;;;;;;5078160;28;20109;-60
2021/10/11 11:07:37;;;;;;;8.73;1.30;;;;;;;;;;5078033;28;20022;-61
2021/10/11 11:10:05;;;;;;;5.93;1.40;;;;;;;;;;5081441;28;20030;-62
2021/10/11 11:12:35;;;;;;;3.05;1.20;;;;;;;;;;5074283;28;20022;-61
2021/10/11 11:15:02;;;;;;;16.08;1.45;;;;;;;;;;5077577;28;20040;-60
2021/10/11 11:17:29;;;;;;;4.90;1.48;;;;;;;;;;5077438;28;20022;-60
2021/10/11 11:19:55;;;;;;;13.70;1.45;;;;;;;;;;5080795;28;20070;-60
2021/10/11 11:22:28;;;;;;;23.15;1.13;;;;;;;;;;5077862;28;20036;-63
2021/10/11 11:25:00;;;;;;;7.60;1.48;;;;;;;;;;5090363;28;20027;-59
2021/10/11 11:27:30;;;;;;;13.70;1.42;;;;;;;;;;5074961;28;20062;-60
2021/10/11 11:29:57;;;;;;;11.13;1.20;;;;;;;;;;5078244;28;20022;-60
2021/10/11 11:32:23;;;;;;;8.07;1.27;;;;;;;;;;5078155;28;20022;-60
2021/10/11 11:34:49;;;;;;;9.73;1.90;;;;;;;;;;5087620;28;20079;-60
2021/10/11 11:37:15;;;;;;;19.42;1.45;;;;;;;;;;5085508;28;20114;-64
2021/10/11 11:39:42;;;;;;;21.27;1.20;;;;;;;;;;5081328;28;20037;-59
2021/10/11 11:42:08;;;;;;;5.97;0.85;;;;;;;;;;5077910;28;20038;-62
2021/10/11 11:44:34;;;;;;;45.00;1.70;;;;;;;;;;5078182;28;20019;-60
2021/10/11 11:47:07;;;;;;;31.10;1.70;;;;;;;;;;5077860;28;20441;-60
2021/10/11 11:49:37;;;;;;;13.77;1.05;;;;;;;;;;5071543;28;20405;-59
2021/10/11 11:52:14;;;;;;;22.50;1.35;;;;;;;;;;5083772;27;20083;-61
2021/10/11 11:54:52;;;;;;;13.27;1.48;;;;;;;;;;5086826;27;20488;-61
2021/10/11 11:57:18;;;;;;;10.10;1.30;;;;;;;;;;5082112;27;20061;-66
2021/10/11 11:59:45;;;;;;;31.15;1.52;;;;;;;;;;5081483;27;20027;-61
2021/10/11 12:02:11;;;;;;;18.08;1.33;;;;;;;;;;5077444;27;20026;-61
2021/10/11 12:04:37;;;;;;;18.20;1.60;;;;;;;;;;5081873;27;20122;-64
2021/10/11 12:07:04;;;;;;;8.07;1.10;;;;;;;;;;5081595;27;20541;-62
2021/10/11 12:09:30;;;;;;;6.15;0.93;;;;;;;;;;5081295;27;20019;-61
2021/10/11 12:12:04;;;;;;;9.98;1.13;;;;;;;;;;5088899;27;20019;-61
2021/10/11 12:14:30;;;;;;;10.52;1.23;;;;;;;;;;5084018;27;20027;-62
2021/10/11 12:17:07;;;;;;;8.18;1.23;;;;;;;;;;5076106;27;20118;-60
2021/10/11 12:19:33;;;;;;;6.65;0.90;;;;;;;;;;5087245;27;20374;-65
2021/10/11 12:22:00;;;;;;;7.35;0.80;;;;;;;;;;5086041;27;20029;-61
2021/10/11 12:24:31;;;;;;;9.25;1.05;;;;;;;;;;5084854;27;20025;-60
2021/10/11 12:27:02;;;;;;;4.35;1.05;;;;;;;;;;5075986;27;20044;-65
2021/10/11 12:29:30;;;;;;;13.63;1.27;;;;;;;;;;5082411;27;20019;-64
2021/10/11 12:31:57;;;;;;;15.20;1.05;;;;;;;;;;5081736;27;20019;-61
2021/10/11 12:34:31;;;;;;;14.18;1.48;;;;;;;;;;5081815;27;20031;-60
2021/10/11 12:36:58;;;;;;;13.35;1.02;;;;;;;;;;5087200;27;20046;-61
2021/10/11 12:39:44;;;;;;;7.47;1.10;;;;;;;;;;5086644;27;20026;-61
2021/10/11 12:42:17;;;;;;;10.15;0.93;;;;;;;;;;5083420;27;20034;-61
2021/10/11 12:44:46;;;;;;;11.52;1.20;;;;;;;;;;5075338;27;20033;-61
2021/10/11 12:47:29;;;;;;;9.80;1.17;;;;;;;;;;5070055;27;20029;-60
2021/10/11 12:49:55;;;;;;;8.38;1.05;;;;;;;;;;5081235;27;20075;-61
2021/10/11 12:52:30;;;;;;;7.10;1.10;;;;;;;;;;5080310;27;20903;-63
2021/10/11 12:55:04;;;;;;;4.63;0.95;;;;;;;;;;5084915;27;20035;-61
2021/10/11 12:57:30;;;;;;;5.22;0.80;;;;;;;;;;5080719;27;20461;-61
2021/10/11 12:59:56;;;;;;;10.68;0.90;;;;;;;;;;5075172;27;20070;-61
2021/10/11 13:02:21;;;;;;;8.25;1.45;;;;;;;;;;5082675;27;20027;-61
2021/10/11 13:04:47;;;;;;;7.10;1.30;;;;;;;;;;5082636;27;20021;-61
2021/10/11 13:07:13;;;;;;;6.30;1.05;;;;;;;;;;5076599;27;20166;-60
2021/10/11 13:09:39;;;;;;;7.97;1.13;;;;;;;;;;5082942;27;20026;-62
2021/10/11 13:12:05;;;;;;;7.75;1.23;;;;;;;;;;5080811;27;20402;-61
2021/10/11 13:14:31;;;;;;;7.63;1.45;;;;;;;;;;5076661;27;20025;-61
2021/10/11 13:16:57;;;;;;;7.82;1.52;;;;;;;;;;5072741;27;20023;-61
2021/10/11 13:19:23;;;;;;;4.18;1.05;;;;;;;;;;5066460;27;20031;-62
2021/10/11 13:21:49;;;;;;;7.57;1.30;;;;;;;;;;5059390;27;20014;-60
2021/10/11 13:24:16;;;;;;;6.25;1.10;;;;;;;;;;5104774;27;20115;-62
2021/10/11 13:26:42;;;;;;;7.18;1.77;;;;;;;;;;5086467;27;20453;-62
2021/10/11 13:35:49;;;;;;;9.77;1.20;;;;;;;;;;5053792;27;20044;-60
2021/10/11 14:28:21;;;;;;;7.63;1.30;;;;;;;;;;5065600;27;20024;-60
2021/10/11 15:54:32;;;;;;;5.72;1.00;;;;;;;;;;5097515;27;20056;-59
2021/10/11 16:01:24;;;;;;;5.60;1.20;;;;;;;;;;5095801;27;20493;-60
2021/10/11 16:03:50;;;;;;;9.52;1.50;;;;;;;;;;5098215;27;20067;-60
2021/10/11 16:12:42;;;;;;;9.07;1.50;;;;;;;;;;5031223;28;20442;-59
2021/10/11 16:15:09;;;;;;;5.88;1.25;;;;;;;;;;5018260;28;20030;-59
2021/10/11 16:17:36;;;;;;;3.92;1.10;;;;;;;;;;5105268;27;20104;-60
2021/10/11 16:20:04;;;;;;;6.60;1.67;;;;;;;;;;5093427;27;20014;-59
2021/10/11 16:22:30;;;;;;;5.72;1.63;;;;;;;;;;5100001;28;20026;-59
2021/10/11 16:24:56;;;;;;;8.48;2.20;;;;;;;;;;5128985;27;20088;-59
2021/10/11 16:27:22;;;;;;;8.30;2.10;;;;;;;;;;5135913;27;20023;-59
2021/10/11 16:29:48;;;;;;;11.10;2.58;;;;;;;;;;5135296;27;20035;-59
2021/10/11 16:32:14;;;;;;;12.15;2.90;;;;;;;;;;5085600;27;20061;-63
2021/10/11 16:34:40;;;;;;;8.80;2.75;;;;;;;;;;5110812;27;20023;-66
2021/10/11 16:37:06;;;;;;;11.75;2.40;;;;;;;;;;5134604;27;20091;-66
2021/10/11 16:39:32;;;;;;;8.38;2.88;;;;;;;;;;5135472;27;20034;-60
2021/10/11 16:41:58;;;;;;;6.20;1.67;;;;;;;;;;5135465;27;20020;-60
2021/10/11 16:44:24;;;;;;;5.60;2.38;;;;;;;;;;5135290;27;20178;-60
2021/10/11 16:46:50;;;;;;;8.88;2.50;;;;;;;;;;5135171;27;20031;-59
2021/10/11 16:49:16;;;;;;;12.35;3.13;;;;;;;;;;5040859;27;20029;-64
2021/10/11 16:51:42;;;;;;;8.90;2.50;;;;;;;;;;5030729;28;20034;-58
2021/10/11 16:56:35;;;;;;;6.68;1.90;;;;;;;;;;5030082;28;20108;-59
2021/10/11 16:59:03;;;;;;;6.05;2.28;;;;;;;;;;5030629;28;20530;-63
2021/10/11 17:01:29;;;;;;;7.40;2.20;;;;;;;;;;5030700;28;20025;-61
2021/10/11 17:03:57;;;;;;;6.30;2.28;;;;;;;;;;5030984;28;20041;-68
2021/10/11 17:06:23;;;;;;;28.70;2.67;;;;;;;;;;5029218;28;20037;-60
2021/10/11 17:08:49;;;;;;;13.35;2.10;;;;;;;;;;5074804;27;20019;-60
2021/10/11 17:11:15;;;;;;;14.93;2.00;;;;;;;;;;5086048;27;20345;-63
2021/10/11 17:13:41;;;;;;;14.82;2.17;;;;;;;;;;5049469;27;20034;-61